sensor_id;sensor_type;location;lat;lon;timestamp;P1;durP1;ratioP1;P2;durP2;ratioP2
76656;SDS011;65576;47.714;9.414;2023-03-23T00:00:36;1.63;;;1.02;;
76656;SDS011;65576;47.714;9.414;2023-03-23T00:03:02;3.08;;;1.65;;
76656;SDS011;65576;47.714;9.414;2023-03-23T00:05:27;3.05;;;1.70;;
76656;SDS011;65576;47.714;9.414;2023-03-23T00:07:54;1.88;;;1.30;;
76656;SDS011;65576;47.714;9.414;2023-03-23T00:10:20;1.98;;;1.40;;
76656;SDS011;65576;47.714;9.414;2023-03-23T00:12:45;6.18;;;2.03;;
76656;SDS011;65576;47.714;9.414;2023-03-23T00:15:14;1.63;;;1.50;;
76656;SDS011;65576;47.714;9.414;2023-03-23T00:17:41;1.83;;;1.48;;
76656;SDS011;65576;47.714;9.414;2023-03-23T00:20:09;1.67;;;1.33;;
76656;SDS011;65576;47.714;9.414;2023-03-23T00:22:36;1.65;;;1.23;;
76656;SDS011;65576;47.714;9.414;2023-03-23T00:25:02;6.22;;;1.55;;
76656;SDS011;65576;47.714;9.414;2023-03-23T00:27:28;2.90;;;1.63;;
76656;SDS011;65576;47.714;9.414;2023-03-23T00:29:53;1.88;;;1.45;;
76656;SDS011;65576;47.714;9.414;2023-03-23T00:32:20;1.20;;;1.10;;
76656;SDS011;65576;47.714;9.414;2023-03-23T00:34:52;1.48;;;1.27;;
76656;SDS011;65576;47.714;9.414;2023-03-23T00:37:17;3.40;;;1.10;;
76656;SDS011;65576;47.714;9.414;2023-03-23T00:39:43;2.65;;;1.83;;
76656;SDS011;65576;47.714;9.414;2023-03-23T00:42:10;1.65;;;1.55;;
76656;SDS011;65576;47.714;9.414;2023-03-23T00:44:37;2.60;;;1.30;;
76656;SDS011;65576;47.714;9.414;2023-03-23T00:47:02;4.10;;;0.95;;
76656;SDS011;65576;47.714;9.414;2023-03-23T00:49:28;1.70;;;1.40;;
76656;SDS011;65576;47.714;9.414;2023-03-23T00:51:54;5.68;;;2.00;;
76656;SDS011;65576;47.714;9.414;2023-03-23T00:54:21;2.17;;;1.52;;
76656;SDS011;65576;47.714;9.414;2023-03-23T00:56:47;6.75;;;1.95;;
76656;SDS011;65576;47.714;9.414;2023-03-23T00:59:12;4.90;;;1.65;;
76656;SDS011;65576;47.714;9.414;2023-03-23T01:01:38;1.58;;;1.48;;
76656;SDS011;65576;47.714;9.414;2023-03-23T01:04:03;2.58;;;1.95;;
76656;SDS011;65576;47.714;9.414;2023-03-23T01:06:30;1.90;;;1.65;;
76656;SDS011;65576;47.714;9.414;2023-03-23T01:08:56;1.67;;;1.42;;
76656;SDS011;65576;47.714;9.414;2023-03-23T01:11:22;1.52;;;1.35;;
76656;SDS011;65576;47.714;9.414;2023-03-23T01:13:49;1.88;;;1.67;;
76656;SDS011;65576;47.714;9.414;2023-03-23T01:16:14;3.17;;;1.45;;
76656;SDS011;65576;47.714;9.414;2023-03-23T01:18:39;2.78;;;1.70;;
76656;SDS011;65576;47.714;9.414;2023-03-23T01:21:06;2.83;;;2.03;;
76656;SDS011;65576;47.714;9.414;2023-03-23T01:23:33;7.30;;;1.95;;
76656;SDS011;65576;47.714;9.414;2023-03-23T01:26:02;2.17;;;1.38;;
76656;SDS011;65576;47.714;9.414;2023-03-23T01:28:28;2.20;;;1.55;;
76656;SDS011;65576;47.714;9.414;2023-03-23T01:30:58;1.60;;;1.50;;
76656;SDS011;65576;47.714;9.414;2023-03-23T01:33:25;2.47;;;1.70;;
76656;SDS011;65576;47.714;9.414;2023-03-23T01:35:50;1.40;;;1.30;;
76656;SDS011;65576;47.714;9.414;2023-03-23T01:38:15;1.83;;;1.45;;
76656;SDS011;65576;47.714;9.414;2023-03-23T01:40:41;2.63;;;1.52;;
76656;SDS011;65576;47.714;9.414;2023-03-23T01:43:13;1.80;;;1.55;;
76656;SDS011;65576;47.714;9.414;2023-03-23T01:45:39;2.13;;;1.50;;
76656;SDS011;65576;47.714;9.414;2023-03-23T01:50:48;1.50;;;1.40;;
76656;SDS011;65576;47.714;9.414;2023-03-23T01:53:16;2.88;;;1.40;;
76656;SDS011;65576;47.714;9.414;2023-03-23T01:55:43;4.45;;;1.90;;
76656;SDS011;65576;47.714;9.414;2023-03-23T01:58:09;2.67;;;1.70;;
76656;SDS011;65576;47.714;9.414;2023-03-23T02:00:35;2.30;;;1.33;;
76656;SDS011;65576;47.714;9.414;2023-03-23T02:03:02;1.48;;;1.13;;
76656;SDS011;65576;47.714;9.414;2023-03-23T02:05:29;2.08;;;1.50;;
76656;SDS011;65576;47.714;9.414;2023-03-23T02:07:58;2.92;;;1.48;;
76656;SDS011;65576;47.714;9.414;2023-03-23T02:10:27;1.42;;;1.25;;
76656;SDS011;65576;47.714;9.414;2023-03-23T02:12:57;1.40;;;1.30;;
76656;SDS011;65576;47.714;9.414;2023-03-23T02:15:24;2.05;;;1.60;;
76656;SDS011;65576;47.714;9.414;2023-03-23T02:17:55;1.90;;;1.42;;
76656;SDS011;65576;47.714;9.414;2023-03-23T02:20:33;1.65;;;1.48;;
76656;SDS011;65576;47.714;9.414;2023-03-23T02:34:36;5.57;;;1.70;;
76656;SDS011;65576;47.714;9.414;2023-03-23T02:37:08;1.50;;;1.40;;
76656;SDS011;65576;47.714;9.414;2023-03-23T02:42:04;1.63;;;1.52;;
76656;SDS011;65576;47.714;9.414;2023-03-23T02:44:31;2.03;;;1.50;;
76656;SDS011;65576;47.714;9.414;2023-03-23T02:46:59;3.58;;;1.38;;
76656;SDS011;65576;47.714;9.414;2023-03-23T02:49:25;1.40;;;1.30;;
76656;SDS011;65576;47.714;9.414;2023-03-23T02:51:53;4.95;;;1.92;;
76656;SDS011;65576;47.714;9.414;2023-03-23T02:54:18;1.90;;;1.38;;
76656;SDS011;65576;47.714;9.414;2023-03-23T02:56:47;3.60;;;2.10;;
76656;SDS011;65576;47.714;9.414;2023-03-23T02:59:13;3.25;;;1.80;;
76656;SDS011;65576;47.714;9.414;2023-03-23T03:04:07;2.03;;;1.13;;
76656;SDS011;65576;47.714;9.414;2023-03-23T03:06:44;2.67;;;1.52;;
76656;SDS011;65576;47.714;9.414;2023-03-23T03:12:04;1.98;;;1.25;;
76656;SDS011;65576;47.714;9.414;2023-03-23T03:14:44;2.58;;;1.55;;
76656;SDS011;65576;47.714;9.414;2023-03-23T03:17:20;12.32;;;1.85;;
76656;SDS011;65576;47.714;9.414;2023-03-23T03:19:49;3.28;;;1.70;;
76656;SDS011;65576;47.714;9.414;2023-03-23T03:22:18;1.33;;;1.23;;
76656;SDS011;65576;47.714;9.414;2023-03-23T03:24:45;2.63;;;1.70;;
76656;SDS011;65576;47.714;9.414;2023-03-23T03:27:13;2.03;;;1.48;;
76656;SDS011;65576;47.714;9.414;2023-03-23T03:29:41;2.00;;;1.17;;
76656;SDS011;65576;47.714;9.414;2023-03-23T03:32:11;2.60;;;1.60;;
76656;SDS011;65576;47.714;9.414;2023-03-23T03:34:40;1.83;;;1.23;;
76656;SDS011;65576;47.714;9.414;2023-03-23T03:37:06;3.40;;;1.73;;
76656;SDS011;65576;47.714;9.414;2023-03-23T03:39:34;2.05;;;1.60;;
76656;SDS011;65576;47.714;9.414;2023-03-23T03:42:00;1.42;;;1.02;;
76656;SDS011;65576;47.714;9.414;2023-03-23T03:44:25;1.88;;;1.58;;
76656;SDS011;65576;47.714;9.414;2023-03-23T03:46:51;2.08;;;1.55;;
76656;SDS011;65576;47.714;9.414;2023-03-23T03:49:16;2.13;;;1.50;;
76656;SDS011;65576;47.714;9.414;2023-03-23T03:51:41;3.00;;;1.90;;
76656;SDS011;65576;47.714;9.414;2023-03-23T03:54:07;1.95;;;1.70;;
76656;SDS011;65576;47.714;9.414;2023-03-23T03:56:32;2.08;;;1.40;;
76656;SDS011;65576;47.714;9.414;2023-03-23T03:59:01;1.85;;;1.60;;
76656;SDS011;65576;47.714;9.414;2023-03-23T04:01:27;4.00;;;1.20;;
76656;SDS011;65576;47.714;9.414;2023-03-23T04:03:53;3.25;;;2.38;;
76656;SDS011;65576;47.714;9.414;2023-03-23T04:06:19;2.47;;;1.67;;
76656;SDS011;65576;47.714;9.414;2023-03-23T04:08:45;2.40;;;1.42;;
76656;SDS011;65576;47.714;9.414;2023-03-23T04:11:11;1.70;;;1.58;;
76656;SDS011;65576;47.714;9.414;2023-03-23T04:13:38;2.58;;;1.73;;
76656;SDS011;65576;47.714;9.414;2023-03-23T04:16:04;3.55;;;1.92;;
76656;SDS011;65576;47.714;9.414;2023-03-23T04:18:30;2.95;;;2.28;;
76656;SDS011;65576;47.714;9.414;2023-03-23T04:20:57;3.05;;;1.85;;
76656;SDS011;65576;47.714;9.414;2023-03-23T04:23:24;2.28;;;1.92;;
76656;SDS011;65576;47.714;9.414;2023-03-23T04:25:50;2.45;;;1.55;;
76656;SDS011;65576;47.714;9.414;2023-03-23T04:28:18;3.92;;;2.42;;
76656;SDS011;65576;47.714;9.414;2023-03-23T04:30:44;3.00;;;1.88;;
76656;SDS011;65576;47.714;9.414;2023-03-23T04:33:10;2.10;;;1.90;;
76656;SDS011;65576;47.714;9.414;2023-03-23T04:35:40;2.38;;;1.88;;
76656;SDS011;65576;47.714;9.414;2023-03-23T04:38:07;4.47;;;1.98;;
76656;SDS011;65576;47.714;9.414;2023-03-23T04:40:35;3.17;;;2.22;;
76656;SDS011;65576;47.714;9.414;2023-03-23T04:43:01;2.80;;;2.10;;
76656;SDS011;65576;47.714;9.414;2023-03-23T04:45:30;3.00;;;2.00;;
76656;SDS011;65576;47.714;9.414;2023-03-23T04:47:56;2.35;;;1.77;;
76656;SDS011;65576;47.714;9.414;2023-03-23T04:50:27;4.07;;;2.33;;
76656;SDS011;65576;47.714;9.414;2023-03-23T04:52:55;3.13;;;2.08;;
76656;SDS011;65576;47.714;9.414;2023-03-23T04:55:22;2.35;;;1.88;;
76656;SDS011;65576;47.714;9.414;2023-03-23T04:57:48;2.63;;;2.22;;
76656;SDS011;65576;47.714;9.414;2023-03-23T05:00:13;3.50;;;2.50;;
76656;SDS011;65576;47.714;9.414;2023-03-23T05:02:41;2.28;;;1.95;;
76656;SDS011;65576;47.714;9.414;2023-03-23T05:05:07;2.88;;;2.30;;
76656;SDS011;65576;47.714;9.414;2023-03-23T05:07:33;2.83;;;1.90;;
76656;SDS011;65576;47.714;9.414;2023-03-23T05:09:59;2.17;;;1.98;;
76656;SDS011;65576;47.714;9.414;2023-03-23T05:12:24;2.97;;;2.25;;
76656;SDS011;65576;47.714;9.414;2023-03-23T05:14:50;2.22;;;1.80;;
76656;SDS011;65576;47.714;9.414;2023-03-23T05:17:15;3.53;;;2.88;;
76656;SDS011;65576;47.714;9.414;2023-03-23T05:19:44;2.92;;;2.33;;
76656;SDS011;65576;47.714;9.414;2023-03-23T05:22:13;3.03;;;2.65;;
76656;SDS011;65576;47.714;9.414;2023-03-23T05:24:41;2.75;;;1.95;;
76656;SDS011;65576;47.714;9.414;2023-03-23T05:27:11;2.30;;;1.77;;
76656;SDS011;65576;47.714;9.414;2023-03-23T05:29:36;2.10;;;1.55;;
76656;SDS011;65576;47.714;9.414;2023-03-23T05:32:03;2.13;;;1.92;;
76656;SDS011;65576;47.714;9.414;2023-03-23T05:34:29;4.10;;;2.28;;
76656;SDS011;65576;47.714;9.414;2023-03-23T05:36:57;4.00;;;2.78;;
76656;SDS011;65576;47.714;9.414;2023-03-23T05:39:23;4.18;;;2.50;;
76656;SDS011;65576;47.714;9.414;2023-03-23T05:41:48;2.63;;;1.88;;
76656;SDS011;65576;47.714;9.414;2023-03-23T05:44:13;3.75;;;2.15;;
76656;SDS011;65576;47.714;9.414;2023-03-23T05:46:39;3.15;;;2.13;;
76656;SDS011;65576;47.714;9.414;2023-03-23T05:49:05;3.97;;;2.55;;
76656;SDS011;65576;47.714;9.414;2023-03-23T05:51:30;4.07;;;2.47;;
76656;SDS011;65576;47.714;9.414;2023-03-23T05:53:56;3.33;;;2.28;;
76656;SDS011;65576;47.714;9.414;2023-03-23T05:56:22;3.45;;;2.30;;
76656;SDS011;65576;47.714;9.414;2023-03-23T05:58:47;2.97;;;2.20;;
76656;SDS011;65576;47.714;9.414;2023-03-23T06:01:12;2.78;;;1.95;;
76656;SDS011;65576;47.714;9.414;2023-03-23T06:03:38;2.25;;;1.95;;
76656;SDS011;65576;47.714;9.414;2023-03-23T06:06:04;3.47;;;2.25;;
76656;SDS011;65576;47.714;9.414;2023-03-23T06:08:30;2.88;;;2.13;;
76656;SDS011;65576;47.714;9.414;2023-03-23T06:10:55;2.47;;;1.60;;
76656;SDS011;65576;47.714;9.414;2023-03-23T06:13:21;12.02;;;2.13;;
76656;SDS011;65576;47.714;9.414;2023-03-23T06:15:47;5.05;;;2.17;;
76656;SDS011;65576;47.714;9.414;2023-03-23T06:18:13;3.95;;;1.77;;
76656;SDS011;65576;47.714;9.414;2023-03-23T06:20:39;3.65;;;2.28;;
76656;SDS011;65576;47.714;9.414;2023-03-23T06:23:04;3.15;;;2.20;;
76656;SDS011;65576;47.714;9.414;2023-03-23T06:25:30;2.35;;;1.98;;
76656;SDS011;65576;47.714;9.414;2023-03-23T06:27:56;6.60;;;2.60;;
76656;SDS011;65576;47.714;9.414;2023-03-23T06:30:21;8.55;;;3.25;;
76656;SDS011;65576;47.714;9.414;2023-03-23T06:32:46;3.33;;;2.30;;
76656;SDS011;65576;47.714;9.414;2023-03-23T06:35:12;4.57;;;2.13;;
76656;SDS011;65576;47.714;9.414;2023-03-23T06:37:38;4.82;;;2.13;;
76656;SDS011;65576;47.714;9.414;2023-03-23T06:40:04;2.97;;;2.35;;
76656;SDS011;65576;47.714;9.414;2023-03-23T06:42:34;5.03;;;2.47;;
76656;SDS011;65576;47.714;9.414;2023-03-23T06:45:00;4.38;;;2.78;;
76656;SDS011;65576;47.714;9.414;2023-03-23T06:47:26;4.97;;;2.38;;
76656;SDS011;65576;47.714;9.414;2023-03-23T06:49:54;4.68;;;3.47;;
76656;SDS011;65576;47.714;9.414;2023-03-23T06:52:20;6.05;;;3.63;;
76656;SDS011;65576;47.714;9.414;2023-03-23T06:54:45;4.32;;;2.47;;
76656;SDS011;65576;47.714;9.414;2023-03-23T06:57:11;4.18;;;2.13;;
76656;SDS011;65576;47.714;9.414;2023-03-23T06:59:36;4.00;;;2.58;;
76656;SDS011;65576;47.714;9.414;2023-03-23T07:02:01;2.67;;;2.30;;
76656;SDS011;65576;47.714;9.414;2023-03-23T07:04:27;2.95;;;2.60;;
76656;SDS011;65576;47.714;9.414;2023-03-23T07:06:52;4.20;;;2.25;;
76656;SDS011;65576;47.714;9.414;2023-03-23T07:09:18;10.60;;;2.63;;
76656;SDS011;65576;47.714;9.414;2023-03-23T07:11:43;4.43;;;2.80;;
76656;SDS011;65576;47.714;9.414;2023-03-23T07:14:09;3.30;;;2.47;;
76656;SDS011;65576;47.714;9.414;2023-03-23T07:16:34;3.55;;;2.47;;
76656;SDS011;65576;47.714;9.414;2023-03-23T07:19:00;4.35;;;2.47;;
76656;SDS011;65576;47.714;9.414;2023-03-23T07:21:25;3.33;;;2.03;;
76656;SDS011;65576;47.714;9.414;2023-03-23T07:23:51;3.13;;;2.15;;
76656;SDS011;65576;47.714;9.414;2023-03-23T07:26:16;5.28;;;2.20;;
76656;SDS011;65576;47.714;9.414;2023-03-23T07:28:41;3.60;;;2.20;;
76656;SDS011;65576;47.714;9.414;2023-03-23T07:31:07;2.40;;;2.08;;
76656;SDS011;65576;47.714;9.414;2023-03-23T07:33:35;4.38;;;2.03;;
76656;SDS011;65576;47.714;9.414;2023-03-23T07:36:01;3.63;;;2.15;;
76656;SDS011;65576;47.714;9.414;2023-03-23T07:38:27;5.13;;;2.17;;
76656;SDS011;65576;47.714;9.414;2023-03-23T07:40:52;2.35;;;1.98;;
76656;SDS011;65576;47.714;9.414;2023-03-23T07:43:18;2.65;;;2.08;;
76656;SDS011;65576;47.714;9.414;2023-03-23T07:45:44;2.38;;;1.70;;
76656;SDS011;65576;47.714;9.414;2023-03-23T07:48:10;2.33;;;1.75;;
76656;SDS011;65576;47.714;9.414;2023-03-23T07:50:35;2.58;;;1.60;;
76656;SDS011;65576;47.714;9.414;2023-03-23T07:53:02;3.47;;;2.05;;
76656;SDS011;65576;47.714;9.414;2023-03-23T07:55:27;9.90;;;2.53;;
76656;SDS011;65576;47.714;9.414;2023-03-23T07:57:53;4.78;;;1.40;;
76656;SDS011;65576;47.714;9.414;2023-03-23T08:00:19;2.60;;;1.52;;
76656;SDS011;65576;47.714;9.414;2023-03-23T08:02:52;1.38;;;1.27;;
76656;SDS011;65576;47.714;9.414;2023-03-23T08:05:20;1.17;;;0.98;;
76656;SDS011;65576;47.714;9.414;2023-03-23T08:07:47;2.53;;;1.10;;
76656;SDS011;65576;47.714;9.414;2023-03-23T08:10:13;0.88;;;0.85;;
76656;SDS011;65576;47.714;9.414;2023-03-23T08:12:40;4.30;;;1.30;;
76656;SDS011;65576;47.714;9.414;2023-03-23T08:15:07;1.38;;;1.27;;
76656;SDS011;65576;47.714;9.414;2023-03-23T08:17:33;1.27;;;1.17;;
76656;SDS011;65576;47.714;9.414;2023-03-23T08:19:59;1.10;;;1.00;;
76656;SDS011;65576;47.714;9.414;2023-03-23T08:22:25;1.60;;;1.30;;
76656;SDS011;65576;47.714;9.414;2023-03-23T08:24:50;2.00;;;1.15;;
76656;SDS011;65576;47.714;9.414;2023-03-23T08:27:15;1.58;;;1.30;;
76656;SDS011;65576;47.714;9.414;2023-03-23T08:29:43;2.08;;;1.15;;
76656;SDS011;65576;47.714;9.414;2023-03-23T08:32:09;2.40;;;1.17;;
76656;SDS011;65576;47.714;9.414;2023-03-23T08:34:34;1.88;;;0.90;;
76656;SDS011;65576;47.714;9.414;2023-03-23T08:37:00;1.60;;;1.20;;
76656;SDS011;65576;47.714;9.414;2023-03-23T08:39:25;1.33;;;0.95;;
76656;SDS011;65576;47.714;9.414;2023-03-23T08:41:50;1.65;;;1.33;;
76656;SDS011;65576;47.714;9.414;2023-03-23T08:44:16;1.25;;;1.05;;
76656;SDS011;65576;47.714;9.414;2023-03-23T08:46:41;3.15;;;1.40;;
76656;SDS011;65576;47.714;9.414;2023-03-23T08:49:07;4.40;;;1.30;;
76656;SDS011;65576;47.714;9.414;2023-03-23T08:51:32;1.52;;;1.30;;
76656;SDS011;65576;47.714;9.414;2023-03-23T08:53:58;1.85;;;1.50;;
76656;SDS011;65576;47.714;9.414;2023-03-23T08:56:23;6.38;;;1.80;;
76656;SDS011;65576;47.714;9.414;2023-03-23T08:58:49;2.10;;;1.55;;
76656;SDS011;65576;47.714;9.414;2023-03-23T09:01:14;2.13;;;1.30;;
76656;SDS011;65576;47.714;9.414;2023-03-23T09:03:40;1.73;;;1.52;;
76656;SDS011;65576;47.714;9.414;2023-03-23T09:06:06;2.67;;;1.58;;
76656;SDS011;65576;47.714;9.414;2023-03-23T09:08:34;2.50;;;1.92;;
76656;SDS011;65576;47.714;9.414;2023-03-23T09:11:03;2.15;;;1.80;;
76656;SDS011;65576;47.714;9.414;2023-03-23T09:13:34;13.82;;;1.98;;
76656;SDS011;65576;47.714;9.414;2023-03-23T09:15:59;2.15;;;1.85;;
76656;SDS011;65576;47.714;9.414;2023-03-23T09:18:25;5.15;;;2.22;;
76656;SDS011;65576;47.714;9.414;2023-03-23T09:20:51;2.15;;;1.58;;
76656;SDS011;65576;47.714;9.414;2023-03-23T09:23:17;2.58;;;1.45;;
76656;SDS011;65576;47.714;9.414;2023-03-23T09:25:42;1.85;;;1.58;;
76656;SDS011;65576;47.714;9.414;2023-03-23T09:28:08;2.25;;;1.58;;
76656;SDS011;65576;47.714;9.414;2023-03-23T09:30:34;4.75;;;1.75;;
76656;SDS011;65576;47.714;9.414;2023-03-23T09:33:03;3.33;;;1.95;;
76656;SDS011;65576;47.714;9.414;2023-03-23T09:35:29;3.70;;;1.73;;
76656;SDS011;65576;47.714;9.414;2023-03-23T09:37:56;2.97;;;1.95;;
76656;SDS011;65576;47.714;9.414;2023-03-23T09:40:26;2.05;;;1.42;;
76656;SDS011;65576;47.714;9.414;2023-03-23T09:43:04;6.47;;;2.63;;
76656;SDS011;65576;47.714;9.414;2023-03-23T09:45:37;2.42;;;1.73;;
76656;SDS011;65576;47.714;9.414;2023-03-23T09:50:32;5.45;;;1.83;;
76656;SDS011;65576;47.714;9.414;2023-03-23T09:55:48;2.72;;;1.63;;
76656;SDS011;65576;47.714;9.414;2023-03-23T09:58:36;1.88;;;1.58;;
76656;SDS011;65576;47.714;9.414;2023-03-23T10:03:36;2.72;;;1.55;;
76656;SDS011;65576;47.714;9.414;2023-03-23T10:06:04;4.22;;;1.60;;
76656;SDS011;65576;47.714;9.414;2023-03-23T10:08:30;5.63;;;1.50;;
76656;SDS011;65576;47.714;9.414;2023-03-23T10:11:16;2.13;;;1.45;;
76656;SDS011;65576;47.714;9.414;2023-03-23T10:13:52;3.17;;;1.38;;
76656;SDS011;65576;47.714;9.414;2023-03-23T10:16:28;1.92;;;1.52;;
76656;SDS011;65576;47.714;9.414;2023-03-23T10:22:03;1.73;;;1.27;;
76656;SDS011;65576;47.714;9.414;2023-03-23T10:25:06;2.33;;;1.42;;
76656;SDS011;65576;47.714;9.414;2023-03-23T10:27:27;1.60;;;1.50;;
76656;SDS011;65576;47.714;9.414;2023-03-23T10:30:01;2.55;;;1.33;;
76656;SDS011;65576;47.714;9.414;2023-03-23T10:32:39;1.30;;;1.20;;
76656;SDS011;65576;47.714;9.414;2023-03-23T10:35:06;2.47;;;1.67;;
76656;SDS011;65576;47.714;9.414;2023-03-23T10:40:04;2.13;;;1.60;;
76656;SDS011;65576;47.714;9.414;2023-03-23T10:42:36;2.17;;;1.85;;
76656;SDS011;65576;47.714;9.414;2023-03-23T10:50:23;1.63;;;1.40;;
76656;SDS011;65576;47.714;9.414;2023-03-23T10:52:51;9.85;;;1.58;;
76656;SDS011;65576;47.714;9.414;2023-03-23T10:55:19;2.63;;;1.35;;
76656;SDS011;65576;47.714;9.414;2023-03-23T10:57:58;3.10;;;1.50;;
76656;SDS011;65576;47.714;9.414;2023-03-23T11:00:26;3.22;;;1.20;;
76656;SDS011;65576;47.714;9.414;2023-03-23T11:05:44;1.35;;;1.10;;
76656;SDS011;65576;47.714;9.414;2023-03-23T11:08:16;2.75;;;1.23;;
76656;SDS011;65576;47.714;9.414;2023-03-23T11:10:55;4.32;;;2.00;;
76656;SDS011;65576;47.714;9.414;2023-03-23T11:13:23;2.47;;;1.80;;
76656;SDS011;65576;47.714;9.414;2023-03-23T11:15:53;4.30;;;2.38;;
76656;SDS011;65576;47.714;9.414;2023-03-23T11:18:26;2.08;;;1.70;;
76656;SDS011;65576;47.714;9.414;2023-03-23T11:21:00;1.50;;;1.40;;
76656;SDS011;65576;47.714;9.414;2023-03-23T11:23:38;3.05;;;1.90;;
76656;SDS011;65576;47.714;9.414;2023-03-23T11:28:44;2.70;;;1.55;;
76656;SDS011;65576;47.714;9.414;2023-03-23T11:31:35;4.00;;;1.63;;
76656;SDS011;65576;47.714;9.414;2023-03-23T11:34:09;1.95;;;1.55;;
76656;SDS011;65576;47.714;9.414;2023-03-23T11:36:39;1.33;;;1.17;;
76656;SDS011;65576;47.714;9.414;2023-03-23T11:39:25;2.70;;;1.23;;
76656;SDS011;65576;47.714;9.414;2023-03-23T11:41:53;4.20;;;1.60;;
76656;SDS011;65576;47.714;9.414;2023-03-23T11:44:20;2.30;;;1.10;;
76656;SDS011;65576;47.714;9.414;2023-03-23T11:46:49;0.90;;;0.90;;
76656;SDS011;65576;47.714;9.414;2023-03-23T11:52:19;0.88;;;0.88;;
76656;SDS011;65576;47.714;9.414;2023-03-23T11:54:48;2.67;;;1.40;;
76656;SDS011;65576;47.714;9.414;2023-03-23T11:57:17;2.30;;;1.25;;
76656;SDS011;65576;47.714;9.414;2023-03-23T11:59:43;1.38;;;1.17;;
76656;SDS011;65576;47.714;9.414;2023-03-23T12:02:16;1.85;;;0.90;;
76656;SDS011;65576;47.714;9.414;2023-03-23T12:07:46;3.38;;;1.48;;
76656;SDS011;65576;47.714;9.414;2023-03-23T12:10:21;2.00;;;1.55;;
76656;SDS011;65576;47.714;9.414;2023-03-23T12:13:20;1.50;;;1.38;;
76656;SDS011;65576;47.714;9.414;2023-03-23T12:18:46;0.88;;;0.88;;
76656;SDS011;65576;47.714;9.414;2023-03-23T12:21:19;1.30;;;1.20;;
76656;SDS011;65576;47.714;9.414;2023-03-23T12:24:03;2.08;;;1.20;;
76656;SDS011;65576;47.714;9.414;2023-03-23T12:26:53;1.13;;;1.03;;
76656;SDS011;65576;47.714;9.414;2023-03-23T12:37:19;1.27;;;1.10;;
76656;SDS011;65576;47.714;9.414;2023-03-23T12:39:50;1.80;;;1.23;;
76656;SDS011;65576;47.714;9.414;2023-03-23T12:45:18;1.15;;;1.00;;
76656;SDS011;65576;47.714;9.414;2023-03-23T12:47:51;9.68;;;1.63;;
76656;SDS011;65576;47.714;9.414;2023-03-23T12:50:27;3.53;;;1.30;;
76656;SDS011;65576;47.714;9.414;2023-03-23T12:52:58;1.10;;;1.00;;
76656;SDS011;65576;47.714;9.414;2023-03-23T12:55:32;4.03;;;1.20;;
76656;SDS011;65576;47.714;9.414;2023-03-23T12:58:09;0.90;;;0.85;;
76656;SDS011;65576;47.714;9.414;2023-03-23T13:03:14;2.13;;;1.40;;
76656;SDS011;65576;47.714;9.414;2023-03-23T13:05:46;1.92;;;1.20;;
76656;SDS011;65576;47.714;9.414;2023-03-23T13:08:21;1.88;;;1.33;;
76656;SDS011;65576;47.714;9.414;2023-03-23T13:10:50;1.25;;;1.13;;
76656;SDS011;65576;47.714;9.414;2023-03-23T13:13:18;3.17;;;1.13;;
76656;SDS011;65576;47.714;9.414;2023-03-23T13:21:11;1.33;;;0.98;;
76656;SDS011;65576;47.714;9.414;2023-03-23T13:23:56;2.70;;;1.35;;
76656;SDS011;65576;47.714;9.414;2023-03-23T13:26:24;1.88;;;1.38;;
76656;SDS011;65576;47.714;9.414;2023-03-23T13:28:54;2.05;;;1.10;;
76656;SDS011;65576;47.714;9.414;2023-03-23T13:31:23;2.08;;;1.00;;
76656;SDS011;65576;47.714;9.414;2023-03-23T13:33:59;2.40;;;1.23;;
76656;SDS011;65576;47.714;9.414;2023-03-23T13:36:52;1.00;;;0.82;;
76656;SDS011;65576;47.714;9.414;2023-03-23T13:42:00;2.03;;;1.15;;
76656;SDS011;65576;47.714;9.414;2023-03-23T13:44:38;1.17;;;0.90;;
76656;SDS011;65576;47.714;9.414;2023-03-23T13:49:55;2.05;;;0.85;;
76656;SDS011;65576;47.714;9.414;2023-03-23T13:52:36;3.28;;;1.23;;
76656;SDS011;65576;47.714;9.414;2023-03-23T13:57:53;1.23;;;0.95;;
76656;SDS011;65576;47.714;9.414;2023-03-23T14:05:30;1.63;;;1.02;;
76656;SDS011;65576;47.714;9.414;2023-03-23T14:15:59;1.05;;;0.95;;
76656;SDS011;65576;47.714;9.414;2023-03-23T14:18:34;1.67;;;1.10;;
76656;SDS011;65576;47.714;9.414;2023-03-23T14:21:01;2.00;;;1.10;;
76656;SDS011;65576;47.714;9.414;2023-03-23T14:23:26;1.67;;;1.05;;
76656;SDS011;65576;47.714;9.414;2023-03-23T14:25:55;2.78;;;1.48;;
76656;SDS011;65576;47.714;9.414;2023-03-23T14:28:30;2.28;;;0.95;;
76656;SDS011;65576;47.714;9.414;2023-03-23T14:30:55;1.25;;;1.15;;
76656;SDS011;65576;47.714;9.414;2023-03-23T14:33:22;1.30;;;1.00;;
76656;SDS011;65576;47.714;9.414;2023-03-23T14:35:50;0.95;;;0.80;;
76656;SDS011;65576;47.714;9.414;2023-03-23T14:38:16;1.60;;;1.00;;
76656;SDS011;65576;47.714;9.414;2023-03-23T14:40:49;3.88;;;1.20;;
76656;SDS011;65576;47.714;9.414;2023-03-23T14:43:15;2.13;;;1.13;;
76656;SDS011;65576;47.714;9.414;2023-03-23T14:45:42;1.58;;;1.27;;
76656;SDS011;65576;47.714;9.414;2023-03-23T14:48:08;1.10;;;0.88;;
76656;SDS011;65576;47.714;9.414;2023-03-23T14:50:38;3.13;;;1.10;;
76656;SDS011;65576;47.714;9.414;2023-03-23T14:56:13;1.23;;;0.82;;
76656;SDS011;65576;47.714;9.414;2023-03-23T14:58:47;3.17;;;1.30;;
76656;SDS011;65576;47.714;9.414;2023-03-23T15:01:16;1.30;;;1.10;;
76656;SDS011;65576;47.714;9.414;2023-03-23T15:03:45;0.90;;;0.85;;
76656;SDS011;65576;47.714;9.414;2023-03-23T15:06:22;1.20;;;0.90;;
76656;SDS011;65576;47.714;9.414;2023-03-23T15:08:49;1.55;;;1.45;;
76656;SDS011;65576;47.714;9.414;2023-03-23T15:13:45;1.52;;;1.10;;
76656;SDS011;65576;47.714;9.414;2023-03-23T15:16:13;1.08;;;0.95;;
76656;SDS011;65576;47.714;9.414;2023-03-23T15:18:40;2.10;;;1.40;;
76656;SDS011;65576;47.714;9.414;2023-03-23T15:21:10;1.65;;;1.52;;
76656;SDS011;65576;47.714;9.414;2023-03-23T15:23:55;1.58;;;1.23;;
76656;SDS011;65576;47.714;9.414;2023-03-23T15:26:26;3.63;;;1.38;;
76656;SDS011;65576;47.714;9.414;2023-03-23T15:29:00;2.30;;;1.40;;
76656;SDS011;65576;47.714;9.414;2023-03-23T15:31:44;7.07;;;1.85;;
76656;SDS011;65576;47.714;9.414;2023-03-23T15:34:14;1.40;;;1.13;;
76656;SDS011;65576;47.714;9.414;2023-03-23T15:36:45;2.45;;;1.20;;
76656;SDS011;65576;47.714;9.414;2023-03-23T15:39:11;2.47;;;1.20;;
76656;SDS011;65576;47.714;9.414;2023-03-23T15:41:45;1.50;;;1.08;;
76656;SDS011;65576;47.714;9.414;2023-03-23T15:44:12;2.40;;;1.30;;
76656;SDS011;65576;47.714;9.414;2023-03-23T15:46:50;1.15;;;0.95;;
76656;SDS011;65576;47.714;9.414;2023-03-23T15:49:16;1.30;;;1.20;;
76656;SDS011;65576;47.714;9.414;2023-03-23T15:51:42;4.47;;;1.00;;
76656;SDS011;65576;47.714;9.414;2023-03-23T15:54:09;1.85;;;1.30;;
76656;SDS011;65576;47.714;9.414;2023-03-23T15:56:37;5.68;;;2.35;;
76656;SDS011;65576;47.714;9.414;2023-03-23T15:59:03;2.42;;;1.70;;
76656;SDS011;65576;47.714;9.414;2023-03-23T16:01:28;1.40;;;1.20;;
76656;SDS011;65576;47.714;9.414;2023-03-23T16:03:59;1.42;;;1.30;;
76656;SDS011;65576;47.714;9.414;2023-03-23T16:06:33;3.67;;;1.48;;
76656;SDS011;65576;47.714;9.414;2023-03-23T16:08:59;2.05;;;1.35;;
76656;SDS011;65576;47.714;9.414;2023-03-23T16:11:26;2.50;;;1.42;;
76656;SDS011;65576;47.714;9.414;2023-03-23T16:13:53;1.83;;;1.50;;
76656;SDS011;65576;47.714;9.414;2023-03-23T16:16:22;2.70;;;1.77;;
76656;SDS011;65576;47.714;9.414;2023-03-23T16:18:50;2.95;;;1.42;;
76656;SDS011;65576;47.714;9.414;2023-03-23T16:21:16;2.97;;;1.90;;
76656;SDS011;65576;47.714;9.414;2023-03-23T16:23:41;4.38;;;1.70;;
76656;SDS011;65576;47.714;9.414;2023-03-23T16:26:08;4.40;;;2.20;;
76656;SDS011;65576;47.714;9.414;2023-03-23T16:28:34;3.72;;;1.42;;
76656;SDS011;65576;47.714;9.414;2023-03-23T16:31:00;2.10;;;1.65;;
76656;SDS011;65576;47.714;9.414;2023-03-23T16:33:25;2.58;;;1.77;;
76656;SDS011;65576;47.714;9.414;2023-03-23T16:35:50;1.70;;;1.55;;